North Fork, Idaho
Current Conditions -  °F | °C
As of 9:29 AM on Wednesday 28 Jan 2015 (Local Time) from KLLJ Reporting Station
Moderate Fog Moderate Fog  
Wind Chill: -1°   Ceiling: 300
Heat Index: -1°   Visibility: 0.25mi
Dew Point: -1°   Wind: 3mph
Humidity: 96%   Direction: 320°NW
Pressure: 30.28"   Gusts: NA
Location:  45.41°N, 114°W
Report Text: KLLJ 281629Z AUTO 32003KT 1/4SM FZFG VV003 M01/M01 A3028 RMK AO2 T10061011
Loading
Personal Weather Stations






























Interactive Weather Map New forecast layout! Learn more

10-Day Weather Forecast

Advertisements
Track Severe Weather on mobile